PWSweather.com
Personal Weather Stations
Station Observations
REUBENS
Camas Prairie, Reubens, ID 83548

Camas PrairieReubens, ID 83548

Lat: 46.35417, Lon: -116.53167

Elevation: 3480

Station Type: Davis VantagePro 2

http://www.theobrienranch.com/wx/wx.htm

High Low Average
Temperature 34.7°F1.5°C 21.4°F-5.9°C 28.9°F-1.7°C
Dew Point 29.2°F-1.6°C 17.8°F-7.9°C 23.8°F-4.6°C
Winds 11.5 mph 18.5 kmh Calm Calm 3.0 mph S4.8 kmh S
Wind Gusts 13.8 mph22.2 kmh -- 4.0 mph6.4 kmh
Humidity 92% 73% 81%
Pressure 30.63 in1037.3 mb 30.27 in1025.1 mb -
Precipitation 0.00 in0.0 mm - -
Hour Temp Dew Point Humidity Winds Wind Gusts Pressure Precip Precip Rate Daily Precip Total
12:00 AM 23.1°F-4.9°C 19.5°F-6.9°C 86% Calm Calm -- 30.53 in1033.9 mb - 0.00 in0.0 mm 0.00 in0.0 mm
12:15 AM 22.1°F-5.5°C 18.5°F-7.5°C 86% Calm Calm -- 30.53 in1033.9 mb - 0.00 in0.0 mm 0.00 in0.0 mm
12:30 AM 21.6°F-5.8°C 18.1°F-7.7°C 86% 2.3 mph WNW3.7 kmh WNW 3.5 mph5.6 kmh 30.53 in1033.9 mb - 0.00 in0.0 mm 0.00 in0.0 mm
12:45 AM 21.4°F-5.9°C 17.8°F-7.9°C 86% 2.3 mph WNW3.7 kmh WNW 3.5 mph5.6 kmh 30.54 in1034.2 mb - 0.00 in0.0 mm 0.00 in0.0 mm
01:00 AM 21.9°F-5.6°C 18.4°F-7.6°C 86% 4.6 mph WSW7.4 kmh WSW 5.8 mph9.3 kmh 30.54 in1034.2 mb - 0.00 in0.0 mm 0.00 in0.0 mm
01:15 AM 24.7°F-4.1°C 20.3°F-6.5°C 83% 3.5 mph SW5.6 kmh SW 4.6 mph7.4 kmh 30.53 in1033.9 mb - 0.00 in0.0 mm 0.00 in0.0 mm
01:30 AM 24.9°F-3.9°C 20.2°F-6.6°C 82% Calm Calm -- 30.54 in1034.2 mb - 0.00 in0.0 mm 0.00 in0.0 mm
01:45 AM 26.0°F-3.3°C 21.3°F-5.9°C 82% Calm Calm -- 30.53 in1033.9 mb - 0.00 in0.0 mm 0.00 in0.0 mm
02:00 AM 27.0°F-2.8°C 22.5°F-5.3°C 83% Calm Calm 2.3 mph3.7 kmh 30.54 in1034.2 mb - 0.00 in0.0 mm 0.00 in0.0 mm
02:15 AM 25.9°F-3.4°C 21.2°F-6.0°C 82% 2.3 mph SW3.7 kmh SW 3.5 mph5.6 kmh 30.54 in1034.2 mb - 0.00 in0.0 mm 0.00 in0.0 mm
02:30 AM 24.7°F-4.1°C 20.0°F-6.7°C 82% Calm Calm -- 30.54 in1034.2 mb - 0.00 in0.0 mm 0.00 in0.0 mm
02:45 AM 24.5°F-4.2°C 20.4°F-6.4°C 84% Calm Calm -- 30.54 in1034.2 mb - 0.00 in0.0 mm 0.00 in0.0 mm
03:00 AM 23.1°F-4.9°C 18.9°F-7.3°C 84% Calm Calm -- 30.55 in1034.5 mb - 0.00 in0.0 mm 0.00 in0.0 mm
03:15 AM 25.0°F-3.9°C 21.1°F-6.1°C 85% Calm Calm -- 30.55 in1034.5 mb - 0.00 in0.0 mm 0.00 in0.0 mm
03:30 AM 25.6°F-3.6°C 21.4°F-5.9°C 84% Calm Calm -- 30.55 in1034.5 mb - 0.00 in0.0 mm 0.00 in0.0 mm
03:45 AM 25.1°F-3.8°C 20.4°F-6.4°C 82% 2.3 mph SW3.7 kmh SW 3.5 mph5.6 kmh 30.54 in1034.2 mb - 0.00 in0.0 mm 0.00 in0.0 mm
04:00 AM 22.9°F-5.1°C 18.8°F-7.3°C 84% 3.5 mph SW5.6 kmh SW 3.5 mph5.6 kmh 30.56 in1034.9 mb - 0.00 in0.0 mm 0.00 in0.0 mm
04:15 AM 23.4°F-4.8°C 19.0°F-7.2°C 83% Calm Calm -- 30.57 in1035.2 mb - 0.00 in0.0 mm 0.00 in0.0 mm
04:30 AM 23.1°F-4.9°C 19.0°F-7.2°C 84% Calm Calm -- 30.57 in1035.2 mb - 0.00 in0.0 mm 0.00 in0.0 mm
04:45 AM 22.4°F-5.3°C 18.3°F-7.6°C 84% 3.5 mph SW5.6 kmh SW 3.5 mph5.6 kmh 30.58 in1035.6 mb - 0.00 in0.0 mm 0.00 in0.0 mm
05:00 AM 22.4°F-5.3°C 18.0°F-7.8°C 83% 2.3 mph SW3.7 kmh SW 2.3 mph3.7 kmh 30.58 in1035.6 mb - 0.00 in0.0 mm 0.00 in0.0 mm
05:15 AM 23.1°F-4.9°C 19.8°F-6.8°C 87% Calm Calm -- 30.59 in1035.9 mb - 0.00 in0.0 mm 0.00 in0.0 mm
05:30 AM 23.1°F-4.9°C 19.3°F-7.1°C 85% 3.5 mph SW5.6 kmh SW 3.5 mph5.6 kmh 30.58 in1035.6 mb - 0.00 in0.0 mm 0.00 in0.0 mm
05:45 AM 23.0°F-5.0°C 19.2°F-7.1°C 85% Calm Calm -- 30.58 in1035.6 mb - 0.00 in0.0 mm 0.00 in0.0 mm
06:00 AM 23.5°F-4.7°C 19.7°F-6.8°C 85% 3.5 mph SW5.6 kmh SW 5.8 mph9.3 kmh 30.58 in1035.6 mb - 0.00 in0.0 mm 0.00 in0.0 mm
06:15 AM 23.9°F-4.5°C 20.0°F-6.7°C 85% 3.5 mph SW5.6 kmh SW 4.6 mph7.4 kmh 30.60 in1036.2 mb - 0.00 in0.0 mm 0.00 in0.0 mm
06:30 AM 24.0°F-4.4°C 19.9°F-6.7°C 84% 5.8 mph SW9.3 kmh SW 5.8 mph9.3 kmh 30.59 in1035.9 mb - 0.00 in0.0 mm 0.00 in0.0 mm
06:45 AM 24.5°F-4.2°C 20.7°F-6.3°C 85% 6.9 mph SW11.1 kmh SW 9.2 mph14.8 kmh 30.59 in1035.9 mb - 0.00 in0.0 mm 0.00 in0.0 mm
07:00 AM 23.9°F-4.5°C 20.1°F-6.6°C 85% 3.5 mph SSW5.6 kmh SSW 4.6 mph7.4 kmh 30.60 in1036.2 mb - 0.00 in0.0 mm 0.00 in0.0 mm
07:15 AM 24.5°F-4.2°C 20.1°F-6.6°C 83% Calm Calm -- 30.60 in1036.2 mb - 0.00 in0.0 mm 0.00 in0.0 mm
07:30 AM 25.0°F-3.9°C 20.8°F-6.2°C 84% 2.3 mph SW3.7 kmh SW 3.5 mph5.6 kmh 30.60 in1036.2 mb - 0.00 in0.0 mm 0.00 in0.0 mm
07:45 AM 25.7°F-3.5°C 20.7°F-6.3°C 81% 4.6 mph SW7.4 kmh SW 4.6 mph7.4 kmh 30.61 in1036.6 mb - 0.00 in0.0 mm 0.00 in0.0 mm
08:00 AM 27.2°F-2.7°C 22.2°F-5.4°C 81% 4.6 mph SW7.4 kmh SW 5.8 mph9.3 kmh 30.61 in1036.6 mb - 0.00 in0.0 mm 0.00 in0.0 mm
08:15 AM 26.3°F-3.2°C 21.5°F-5.8°C 82% 4.6 mph SW7.4 kmh SW 4.6 mph7.4 kmh 30.63 in1037.3 mb - 0.00 in0.0 mm 0.00 in0.0 mm
08:30 AM 27.0°F-2.8°C 21.9°F-5.6°C 81% 4.6 mph SW7.4 kmh SW 4.6 mph7.4 kmh 30.61 in1036.6 mb - 0.00 in0.0 mm 0.00 in0.0 mm
08:45 AM 27.3°F-2.6°C 22.0°F-5.6°C 80% 2.3 mph SW3.7 kmh SW 3.5 mph5.6 kmh 30.61 in1036.6 mb - 0.00 in0.0 mm 0.00 in0.0 mm
09:00 AM 26.6°F-3.0°C 21.6°F-5.8°C 81% 5.8 mph SW9.3 kmh SW 6.9 mph11.1 kmh 30.61 in1036.6 mb - 0.00 in0.0 mm 0.00 in0.0 mm
09:15 AM 28.2°F-2.1°C 22.9°F-5.1°C 80% 5.8 mph SW9.3 kmh SW 6.9 mph11.1 kmh 30.59 in1035.9 mb - 0.00 in0.0 mm 0.00 in0.0 mm
09:30 AM 29.0°F-1.7°C 23.3°F-4.8°C 79% 5.8 mph SW9.3 kmh SW 6.9 mph11.1 kmh 30.59 in1035.9 mb - 0.00 in0.0 mm 0.00 in0.0 mm
09:45 AM 29.5°F-1.4°C 23.4°F-4.8°C 78% 5.8 mph SW9.3 kmh SW 5.8 mph9.3 kmh 30.60 in1036.2 mb - 0.00 in0.0 mm 0.00 in0.0 mm
10:00 AM 29.7°F-1.3°C 23.3°F-4.8°C 77% 4.6 mph SW7.4 kmh SW 4.6 mph7.4 kmh 30.59 in1035.9 mb - 0.00 in0.0 mm 0.00 in0.0 mm
10:15 AM 30.1°F-1.1°C 24.1°F-4.4°C 78% 2.3 mph SSW3.7 kmh SSW 3.5 mph5.6 kmh 30.58 in1035.6 mb - 0.00 in0.0 mm 0.00 in0.0 mm
10:30 AM 31.0°F-0.6°C 24.6°F-4.1°C 77% 4.6 mph SSW7.4 kmh SSW 4.6 mph7.4 kmh 30.57 in1035.2 mb - 0.00 in0.0 mm 0.00 in0.0 mm
10:45 AM 31.9°F-0.1°C 24.9°F-3.9°C 75% 3.5 mph SSW5.6 kmh SSW 3.5 mph5.6 kmh 30.55 in1034.5 mb - 0.00 in0.0 mm 0.00 in0.0 mm
11:00 AM 32.6°F0.3°C 25.5°F-3.6°C 75% Calm Calm -- 30.56 in1034.9 mb - 0.00 in0.0 mm 0.00 in0.0 mm
11:15 AM 34.0°F1.1°C 26.3°F-3.2°C 73% Calm Calm -- 30.55 in1034.5 mb - 0.00 in0.0 mm 0.00 in0.0 mm
11:30 AM 34.4°F1.3°C 26.6°F-3.0°C 73% Calm Calm -- 30.55 in1034.5 mb - 0.00 in0.0 mm 0.00 in0.0 mm
11:45 AM 34.5°F1.4°C 27.4°F-2.6°C 75% Calm Calm -- 30.55 in1034.5 mb - 0.00 in0.0 mm 0.00 in0.0 mm
12:00 PM 34.4°F1.3°C 27.9°F-2.3°C 77% 2.3 mph N3.7 kmh N 3.5 mph5.6 kmh 30.54 in1034.2 mb - 0.00 in0.0 mm 0.00 in0.0 mm
12:15 PM 34.7°F1.5°C 27.9°F-2.3°C 76% Calm Calm -- 30.52 in1033.5 mb - 0.00 in0.0 mm 0.00 in0.0 mm
12:30 PM 34.0°F1.1°C 27.5°F-2.5°C 77% 1.2 mph N1.9 kmh N 3.5 mph5.6 kmh 30.52 in1033.5 mb - 0.00 in0.0 mm 0.00 in0.0 mm
12:45 PM 33.4°F0.8°C 27.3°F-2.6°C 78% 1.2 mph N1.9 kmh N 3.5 mph5.6 kmh 30.52 in1033.5 mb - 0.00 in0.0 mm 0.00 in0.0 mm
01:00 PM 31.9°F-0.1°C 26.4°F-3.1°C 80% 2.3 mph NE3.7 kmh NE 3.5 mph5.6 kmh 30.51 in1033.2 mb - 0.00 in0.0 mm 0.00 in0.0 mm
01:15 PM 32.3°F0.2°C 27.1°F-2.7°C 81% Calm Calm -- 30.50 in1032.8 mb - 0.00 in0.0 mm 0.00 in0.0 mm
01:30 PM 32.1°F0.1°C 26.3°F-3.2°C 79% Calm Calm -- 30.49 in1032.5 mb - 0.00 in0.0 mm 0.00 in0.0 mm
01:45 PM 31.7°F-0.2°C 26.5°F-3.1°C 81% Calm Calm -- 30.48 in1032.2 mb - 0.00 in0.0 mm 0.00 in0.0 mm
02:00 PM 31.5°F-0.3°C 26.7°F-2.9°C 82% Calm Calm -- 30.48 in1032.2 mb - 0.00 in0.0 mm 0.00 in0.0 mm
02:15 PM 31.8°F-0.1°C 26.3°F-3.2°C 80% Calm Calm -- 30.48 in1032.2 mb - 0.00 in0.0 mm 0.00 in0.0 mm
02:30 PM 32.0°F0.0°C 26.5°F-3.1°C 80% Calm Calm -- 30.48 in1032.2 mb - 0.00 in0.0 mm 0.00 in0.0 mm
02:45 PM 31.8°F-0.1°C 26.3°F-3.2°C 80% Calm Calm -- 30.48 in1032.2 mb - 0.00 in0.0 mm 0.00 in0.0 mm
03:00 PM 31.9°F-0.1°C 26.4°F-3.1°C 80% 3.5 mph SE5.6 kmh SE 4.6 mph7.4 kmh 30.48 in1032.2 mb - 0.00 in0.0 mm 0.00 in0.0 mm
03:15 PM 32.2°F0.1°C 26.1°F-3.3°C 78% 4.6 mph S7.4 kmh S 5.8 mph9.3 kmh 30.48 in1032.2 mb - 0.00 in0.0 mm 0.00 in0.0 mm
03:30 PM 32.1°F0.1°C 26.0°F-3.3°C 78% 8.1 mph S13.0 kmh S 9.2 mph14.8 kmh 30.47 in1031.8 mb - 0.00 in0.0 mm 0.00 in0.0 mm
03:45 PM 31.9°F-0.1°C 26.1°F-3.3°C 79% 11.5 mph S18.5 kmh S 13.8 mph22.2 kmh 30.45 in1031.2 mb - 0.00 in0.0 mm 0.00 in0.0 mm
04:00 PM 32.3°F0.2°C 25.6°F-3.6°C 76% 10.4 mph SSW16.7 kmh SSW 11.5 mph18.5 kmh 30.44 in1030.8 mb - 0.00 in0.0 mm 0.00 in0.0 mm
04:15 PM 32.5°F0.3°C 25.5°F-3.6°C 75% 11.5 mph SSW18.5 kmh SSW 13.8 mph22.2 kmh 30.42 in1030.1 mb - 0.00 in0.0 mm 0.00 in0.0 mm
04:30 PM 32.5°F0.3°C 25.8°F-3.4°C 76% 9.2 mph SW14.8 kmh SW 11.5 mph18.5 kmh 30.42 in1030.1 mb - 0.00 in0.0 mm 0.00 in0.0 mm
04:45 PM 32.3°F0.2°C 25.6°F-3.6°C 76% 6.9 mph SW11.1 kmh SW 10.4 mph16.7 kmh 30.43 in1030.5 mb - 0.00 in0.0 mm 0.00 in0.0 mm
05:00 PM 32.2°F0.1°C 25.5°F-3.6°C 76% 8.1 mph SW13.0 kmh SW 9.2 mph14.8 kmh 30.43 in1030.5 mb - 0.00 in0.0 mm 0.00 in0.0 mm
05:15 PM 32.3°F0.2°C 25.6°F-3.6°C 76% 3.5 mph SW5.6 kmh SW 4.6 mph7.4 kmh 30.42 in1030.1 mb - 0.00 in0.0 mm 0.00 in0.0 mm
05:30 PM 32.4°F0.2°C 25.4°F-3.7°C 75% Calm Calm 3.5 mph5.6 kmh 30.42 in1030.1 mb - 0.00 in0.0 mm 0.00 in0.0 mm
05:45 PM 32.5°F0.3°C 25.1°F-3.8°C 74% Calm Calm -- 30.41 in1029.8 mb - 0.00 in0.0 mm 0.00 in0.0 mm
06:00 PM 32.5°F0.3°C 24.8°F-4.0°C 73% 2.3 mph SW3.7 kmh SW 3.5 mph5.6 kmh 30.41 in1029.8 mb - 0.00 in0.0 mm 0.00 in0.0 mm
06:15 PM 32.3°F0.2°C 24.6°F-4.1°C 73% 4.6 mph S7.4 kmh S 6.9 mph11.1 kmh 30.39 in1029.1 mb - 0.00 in0.0 mm 0.00 in0.0 mm
06:30 PM 32.1°F0.1°C 24.4°F-4.2°C 73% 4.6 mph S7.4 kmh S 4.6 mph7.4 kmh 30.39 in1029.1 mb - 0.00 in0.0 mm 0.00 in0.0 mm
06:45 PM 31.8°F-0.1°C 24.8°F-4.0°C 75% 3.5 mph S5.6 kmh S 3.5 mph5.6 kmh 30.39 in1029.1 mb - 0.00 in0.0 mm 0.00 in0.0 mm
07:00 PM 31.2°F-0.4°C 25.4°F-3.7°C 79% Calm Calm -- 30.39 in1029.1 mb - 0.00 in0.0 mm 0.00 in0.0 mm
07:15 PM 30.8°F-0.7°C 25.7°F-3.5°C 81% 3.5 mph S5.6 kmh S 3.5 mph5.6 kmh 30.39 in1029.1 mb - 0.00 in0.0 mm 0.00 in0.0 mm
07:30 PM 31.0°F-0.6°C 25.3°F-3.7°C 79% 2.3 mph S3.7 kmh S 3.5 mph5.6 kmh 30.38 in1028.8 mb - 0.00 in0.0 mm 0.00 in0.0 mm
07:45 PM 30.8°F-0.7°C 25.7°F-3.5°C 81% 3.5 mph S5.6 kmh S 3.5 mph5.6 kmh 30.37 in1028.4 mb - 0.00 in0.0 mm 0.00 in0.0 mm
08:00 PM 30.9°F-0.6°C 26.1°F-3.3°C 82% 8.1 mph SSE13.0 kmh SSE 9.2 mph14.8 kmh 30.37 in1028.4 mb - 0.00 in0.0 mm 0.00 in0.0 mm
08:15 PM 30.5°F-0.8°C 26.3°F-3.2°C 84% 6.9 mph SSE11.1 kmh SSE 9.2 mph14.8 kmh 30.35 in1027.8 mb - 0.00 in0.0 mm 0.00 in0.0 mm
08:30 PM 30.2°F-1.0°C 26.2°F-3.2°C 85% 6.9 mph SE11.1 kmh SE 9.2 mph14.8 kmh 30.35 in1027.8 mb - 0.00 in0.0 mm 0.00 in0.0 mm
08:45 PM 29.9°F-1.2°C 26.5°F-3.1°C 87% 8.1 mph SE13.0 kmh SE 10.4 mph16.7 kmh 30.34 in1027.4 mb - 0.00 in0.0 mm 0.00 in0.0 mm
09:00 PM 30.1°F-1.1°C 26.4°F-3.1°C 86% 6.9 mph SE11.1 kmh SE 9.2 mph14.8 kmh 30.35 in1027.8 mb - 0.00 in0.0 mm 0.00 in0.0 mm
09:15 PM 30.2°F-1.0°C 28.2°F-2.1°C 92% 9.2 mph SE14.8 kmh SE 10.4 mph16.7 kmh 30.33 in1027.1 mb - 0.00 in0.0 mm 0.00 in0.0 mm
09:30 PM 30.4°F-0.9°C 26.4°F-3.1°C 85% 5.8 mph SE9.3 kmh SE 6.9 mph11.1 kmh 30.33 in1027.1 mb - 0.00 in0.0 mm 0.00 in0.0 mm
09:45 PM 31.5°F-0.3°C 26.6°F-3.0°C 82% 8.1 mph S13.0 kmh S 11.5 mph18.5 kmh 30.32 in1026.8 mb - 0.00 in0.0 mm 0.00 in0.0 mm
10:00 PM 32.2°F0.1°C 26.8°F-2.9°C 80% 6.9 mph S11.1 kmh S 10.4 mph16.7 kmh 30.32 in1026.8 mb - 0.00 in0.0 mm 0.00 in0.0 mm
10:15 PM 32.2°F0.1°C 26.7°F-2.9°C 80% 6.9 mph SSE11.1 kmh SSE 9.2 mph14.8 kmh 30.30 in1026.1 mb - 0.00 in0.0 mm 0.00 in0.0 mm
10:30 PM 32.3°F0.2°C 27.4°F-2.6°C 82% 10.4 mph S16.7 kmh S 11.5 mph18.5 kmh 30.29 in1025.7 mb - 0.00 in0.0 mm 0.00 in0.0 mm
10:45 PM 32.0°F0.0°C 28.0°F-2.2°C 85% 9.2 mph SSW14.8 kmh SSW 11.5 mph18.5 kmh 30.29 in1025.7 mb - 0.00 in0.0 mm 0.00 in0.0 mm
11:00 PM 31.6°F-0.2°C 28.7°F-1.8°C 89% 5.8 mph SSW9.3 kmh SSW 5.8 mph9.3 kmh 30.30 in1026.1 mb - 0.00 in0.0 mm 0.00 in0.0 mm
11:15 PM 31.7°F-0.2°C 29.1°F-1.6°C 90% 4.6 mph SSW7.4 kmh SSW 5.8 mph9.3 kmh 30.29 in1025.7 mb - 0.00 in0.0 mm 0.00 in0.0 mm
11:30 PM 31.5°F-0.3°C 29.2°F-1.6°C 91% 3.5 mph SSW5.6 kmh SSW 3.5 mph5.6 kmh 30.28 in1025.4 mb - 0.00 in0.0 mm 0.00 in0.0 mm
11:45 PM 31.4°F-0.3°C 29.0°F-1.7°C 91% 3.5 mph SSW5.6 kmh SSW 3.5 mph5.6 kmh 30.27 in1025.1 mb - 0.00 in0.0 mm 0.00 in0.0 mm